createdAt,value
2022-07-27T00:00:25.098Z,15.13
2022-07-27T00:03:09.543Z,15.10
2022-07-27T00:05:42.563Z,15.08
2022-07-27T00:08:20.051Z,15.07
2022-07-27T00:10:52.328Z,15.06
2022-07-27T00:13:25.174Z,15.04
2022-07-27T00:15:58.107Z,15.03
2022-07-27T00:18:30.049Z,15.02
2022-07-27T00:21:02.326Z,15.01
2022-07-27T00:23:34.581Z,14.99
2022-07-27T00:26:06.707Z,14.97
2022-07-27T00:28:38.810Z,14.95
2022-07-27T00:31:11.214Z,14.94
2022-07-27T00:33:43.263Z,14.92
2022-07-27T00:36:15.512Z,14.91
2022-07-27T00:38:47.855Z,14.88
2022-07-27T00:41:20.155Z,14.87
2022-07-27T00:43:57.162Z,14.85
2022-07-27T00:46:30.316Z,14.84
2022-07-27T00:49:02.523Z,14.81
2022-07-27T00:51:35.994Z,14.79
2022-07-27T00:54:09.031Z,14.79
2022-07-27T00:56:41.174Z,14.76
2022-07-27T00:59:14.493Z,14.74
2022-07-27T01:01:47.049Z,14.73
2022-07-27T01:04:19.571Z,14.72
2022-07-27T01:06:54.026Z,14.71
2022-07-27T01:09:40.430Z,14.69
2022-07-27T01:12:18.501Z,14.67
2022-07-27T01:14:51.625Z,14.66
2022-07-27T01:17:23.883Z,14.65
2022-07-27T01:19:57.662Z,14.62
2022-07-27T01:22:30.270Z,14.61
2022-07-27T01:25:03.185Z,14.60
2022-07-27T01:27:35.247Z,14.59
2022-07-27T01:30:26.745Z,14.58
2022-07-27T01:33:05.257Z,14.57
2022-07-27T01:35:38.514Z,14.57
2022-07-27T01:38:12.052Z,14.57
2022-07-27T01:40:44.889Z,14.56
2022-07-27T01:43:17.522Z,14.54
2022-07-27T01:45:49.783Z,14.52
2022-07-27T01:48:21.972Z,14.50
2022-07-27T01:50:54.709Z,14.48
2022-07-27T01:53:27.315Z,14.46
2022-07-27T01:56:00.267Z,14.44
2022-07-27T01:58:32.358Z,14.41
2022-07-27T02:01:04.632Z,14.38
2022-07-27T02:03:37.708Z,14.37
2022-07-27T02:06:10.427Z,14.36
2022-07-27T02:08:42.989Z,14.33
2022-07-27T02:11:33.052Z,14.31
2022-07-27T02:14:06.469Z,14.30
2022-07-27T02:16:38.924Z,14.28
2022-07-27T02:19:12.556Z,14.27
2022-07-27T02:21:45.205Z,14.25
2022-07-27T02:24:19.438Z,14.25
2022-07-27T02:26:52.029Z,14.24
2022-07-27T02:29:24.078Z,14.24
2022-07-27T02:31:55.952Z,14.23
2022-07-27T02:34:28.293Z,14.22
2022-07-27T02:37:00.379Z,14.22
2022-07-27T02:39:34.209Z,14.21
2022-07-27T02:42:07.063Z,14.22
2022-07-27T02:44:39.437Z,14.20
2022-07-27T02:47:11.404Z,14.20
2022-07-27T02:49:43.551Z,14.19
2022-07-27T02:52:15.547Z,14.19
2022-07-27T02:54:48.321Z,14.18
2022-07-27T02:57:23.392Z,14.17
2022-07-27T02:59:55.556Z,14.16
2022-07-27T03:02:30.376Z,14.16
2022-07-27T03:05:04.384Z,14.15
2022-07-27T03:07:38.070Z,14.14
2022-07-27T03:10:11.346Z,14.14
2022-07-27T03:12:44.406Z,14.14
2022-07-27T03:15:19.111Z,14.14
2022-07-27T03:17:51.257Z,14.13
2022-07-27T03:20:23.553Z,14.12
2022-07-27T03:22:55.681Z,14.12
2022-07-27T03:25:28.752Z,14.12
2022-07-27T03:28:04.229Z,14.11
2022-07-27T03:30:37.434Z,14.12
2022-07-27T03:33:10.411Z,14.13
2022-07-27T03:35:42.596Z,14.14
2022-07-27T03:38:14.813Z,14.15
2022-07-27T03:40:48.074Z,14.18
2022-07-27T03:43:20.571Z,14.22
2022-07-27T03:45:53.553Z,14.27
2022-07-27T03:48:27.412Z,14.36
2022-07-27T03:50:59.598Z,14.53
2022-07-27T03:53:31.632Z,14.73
2022-07-27T03:56:05.041Z,14.96
2022-07-27T03:58:36.993Z,15.20
2022-07-27T04:01:11.759Z,15.41
2022-07-27T04:03:44.569Z,15.52
2022-07-27T04:06:16.669Z,15.54
2022-07-27T04:08:49.274Z,15.57
2022-07-27T04:11:23.032Z,15.59
2022-07-27T04:13:58.020Z,15.61
2022-07-27T04:16:36.065Z,15.63
2022-07-27T04:19:09.206Z,15.70
2022-07-27T04:21:41.444Z,15.76
2022-07-27T04:24:13.765Z,15.83
2022-07-27T04:26:45.753Z,15.90
2022-07-27T04:29:20.972Z,15.95
2022-07-27T04:31:54.044Z,16.03
2022-07-27T04:34:26.585Z,16.10
2022-07-27T04:36:58.659Z,16.17
2022-07-27T04:39:35.010Z,16.25
2022-07-27T04:42:09.434Z,16.33
2022-07-27T04:44:41.506Z,16.42
2022-07-27T04:47:13.373Z,16.51
2022-07-27T04:49:45.350Z,16.62
2022-07-27T04:52:19.361Z,16.74
2022-07-27T04:54:57.992Z,16.82
2022-07-27T04:57:31.498Z,16.93
2022-07-27T05:00:05.347Z,17.03
2022-07-27T05:02:38.174Z,17.17
2022-07-27T05:05:11.621Z,17.32
2022-07-27T05:07:43.700Z,17.48
2022-07-27T05:10:20.072Z,17.66
2022-07-27T05:12:52.979Z,17.81
2022-07-27T05:15:25.966Z,17.96
2022-07-27T05:17:57.921Z,18.00
2022-07-27T05:20:30.218Z,18.03
2022-07-27T05:23:03.671Z,18.13
2022-07-27T05:25:35.863Z,18.22
2022-07-27T05:28:09.189Z,18.35
2022-07-27T05:30:41.350Z,18.50
2022-07-27T05:33:13.596Z,18.67
2022-07-27T05:35:46.093Z,18.87
2022-07-27T05:38:18.138Z,19.03
2022-07-27T05:40:50.430Z,19.17
2022-07-27T05:43:23.936Z,19.31
2022-07-27T05:45:57.231Z,19.48
2022-07-27T05:48:29.432Z,19.71
2022-07-27T05:51:01.743Z,19.98
2022-07-27T05:53:34.035Z,20.15
2022-07-27T05:56:08.041Z,20.25
2022-07-27T05:58:40.116Z,20.32
2022-07-27T06:01:12.587Z,20.26
2022-07-27T06:03:45.360Z,20.20
2022-07-27T06:06:35.258Z,20.12
2022-07-27T06:09:07.818Z,20.16
2022-07-27T06:11:41.000Z,20.36
2022-07-27T06:14:13.243Z,20.47
2022-07-27T06:16:45.459Z,20.33
2022-07-27T06:19:18.253Z,20.13
2022-07-27T06:21:53.830Z,20.01
2022-07-27T06:24:26.840Z,19.96
2022-07-27T06:26:59.360Z,20.03
2022-07-27T06:29:31.634Z,20.23
2022-07-27T06:32:06.365Z,20.48
2022-07-27T06:34:43.837Z,20.72
2022-07-27T06:37:15.997Z,20.85
2022-07-27T06:39:48.053Z,20.91
2022-07-27T06:42:20.098Z,21.04
2022-07-27T06:44:52.325Z,21.23
2022-07-27T06:47:28.652Z,21.42
2022-07-27T06:50:01.016Z,21.56
2022-07-27T06:52:33.809Z,21.71
2022-07-27T06:55:10.002Z,21.71
2022-07-27T06:57:43.295Z,21.79
2022-07-27T07:00:18.425Z,21.90
2022-07-27T07:02:59.304Z,22.01
2022-07-27T07:05:32.135Z,22.00
2022-07-27T07:08:11.561Z,22.01
2022-07-27T07:10:45.540Z,22.01
2022-07-27T07:13:17.688Z,21.98
2022-07-27T07:15:51.352Z,21.98
2022-07-27T07:18:25.060Z,22.03
2022-07-27T07:20:57.501Z,22.13
2022-07-27T07:23:29.731Z,22.17
2022-07-27T07:26:02.721Z,22.19
2022-07-27T07:28:36.752Z,22.12
2022-07-27T07:31:09.456Z,22.05
2022-07-27T07:33:41.481Z,22.00
2022-07-27T07:36:15.088Z,21.90
2022-07-27T07:38:47.559Z,21.81
2022-07-27T07:41:22.108Z,21.74
2022-07-27T07:43:56.082Z,21.64
2022-07-27T07:46:28.378Z,21.56
2022-07-27T07:49:00.611Z,21.51
2022-07-27T07:51:33.687Z,21.47
2022-07-27T07:54:09.030Z,21.41
2022-07-27T07:56:41.223Z,21.40
2022-07-27T07:59:14.683Z,21.40
2022-07-27T08:01:47.363Z,21.40
2022-07-27T08:04:19.651Z,21.45
2022-07-27T08:06:51.634Z,21.53
2022-07-27T08:09:27.368Z,21.63
2022-07-27T08:12:00.236Z,21.81
2022-07-27T08:14:32.632Z,21.95
2022-07-27T08:17:06.265Z,22.05
2022-07-27T08:19:40.379Z,22.12
2022-07-27T08:22:13.939Z,22.15
2022-07-27T08:24:46.623Z,22.20
2022-07-27T08:27:19.362Z,22.28
2022-07-27T08:29:51.898Z,22.41
2022-07-27T08:32:25.325Z,22.53
2022-07-27T08:35:01.146Z,22.62
2022-07-27T08:37:33.389Z,22.69
2022-07-27T08:40:39.111Z,22.74
2022-07-27T08:42:59.665Z,22.71
2022-07-27T08:45:32.502Z,22.73
2022-07-27T08:48:05.284Z,22.69
2022-07-27T08:50:38.722Z,22.58
2022-07-27T08:53:13.445Z,22.51
2022-07-27T08:55:47.469Z,22.44
2022-07-27T08:58:20.090Z,22.39
2022-07-27T09:00:52.228Z,22.36
2022-07-27T09:03:25.533Z,22.37
2022-07-27T09:05:59.055Z,22.42
2022-07-27T09:08:34.027Z,22.47
2022-07-27T09:11:17.585Z,22.50
2022-07-27T09:13:50.115Z,22.51
2022-07-27T09:17:14.966Z,22.61
2022-07-27T09:19:25.143Z,22.61
2022-07-27T09:21:57.094Z,22.53
2022-07-27T09:24:46.431Z,22.55
2022-07-27T09:27:20.182Z,22.59
2022-07-27T09:30:04.730Z,22.62
2022-07-27T09:32:37.585Z,22.60
2022-07-27T09:35:24.747Z,22.61
2022-07-27T09:37:57.096Z,22.57
2022-07-27T09:40:29.195Z,22.56
2022-07-27T09:46:10.455Z,22.58
2022-07-27T09:48:42.758Z,22.61
2022-07-27T09:51:59.026Z,22.60
2022-07-27T09:54:10.707Z,22.68
2022-07-27T09:56:43.022Z,22.78
2022-07-27T09:59:20.561Z,22.91
2022-07-27T10:01:54.920Z,23.10
2022-07-27T10:04:28.210Z,23.29
2022-07-27T10:07:03.364Z,23.44
2022-07-27T10:09:40.265Z,23.49
2022-07-27T10:12:13.399Z,23.54
2022-07-27T10:14:45.877Z,23.66
2022-07-27T10:17:18.166Z,23.81
2022-07-27T10:19:51.579Z,24.03
2022-07-27T10:22:52.815Z,24.23
2022-07-27T10:25:26.230Z,24.48
2022-07-27T10:28:18.001Z,24.62
2022-07-27T10:30:54.478Z,24.76
2022-07-27T10:33:46.514Z,24.72
2022-07-27T10:36:20.735Z,24.72
2022-07-27T10:38:56.675Z,24.88
2022-07-27T10:41:30.924Z,24.97
2022-07-27T10:44:31.662Z,24.96
2022-07-27T10:47:05.875Z,24.82
2022-07-27T10:49:40.325Z,24.76
2022-07-27T10:52:43.181Z,24.86
2022-07-27T10:55:47.407Z,24.96
2022-07-27T10:58:48.950Z,25.10
2022-07-27T11:01:25.974Z,25.08
2022-07-27T11:03:58.208Z,24.86
2022-07-27T11:06:35.016Z,24.99
2022-07-27T11:12:10.175Z,25.33
2022-07-27T11:14:52.823Z,25.18
2022-07-27T11:20:28.701Z,25.33
2022-07-27T11:26:04.748Z,26.21
2022-07-27T11:28:38.487Z,26.30
2022-07-27T11:31:20.038Z,26.14
2022-07-27T11:34:04.840Z,26.14
2022-07-27T11:36:44.416Z,26.21
2022-07-27T11:39:43.758Z,26.21
2022-07-27T11:42:12.559Z,26.22
2022-07-27T11:44:52.937Z,26.29
2022-07-27T11:47:26.494Z,26.17
2022-07-27T11:50:08.757Z,25.96
2022-07-27T11:52:42.136Z,25.94
2022-07-27T11:55:15.187Z,26.02
2022-07-27T11:57:47.132Z,26.29
2022-07-27T12:00:20.191Z,26.58
2022-07-27T12:02:53.440Z,26.72
2022-07-27T12:05:26.262Z,26.90
2022-07-27T12:07:59.218Z,27.12
2022-07-27T12:10:35.833Z,27.37
2022-07-27T12:13:09.725Z,27.51
2022-07-27T12:15:46.464Z,27.64
2022-07-27T12:18:19.382Z,27.80
2022-07-27T12:20:52.537Z,28.11
2022-07-27T12:23:32.116Z,28.60
2022-07-27T12:26:20.936Z,28.98
2022-07-27T12:29:09.451Z,29.05
2022-07-27T12:31:51.066Z,29.19
2022-07-27T12:34:23.116Z,29.19
2022-07-27T12:36:55.144Z,29.14
2022-07-27T12:39:30.643Z,29.03
2022-07-27T12:42:11.129Z,29.13
2022-07-27T12:44:44.444Z,29.15
2022-07-27T12:47:34.271Z,28.99
2022-07-27T12:50:10.562Z,28.80
2022-07-27T12:52:45.874Z,28.56
2022-07-27T12:55:18.948Z,28.30
2022-07-27T12:57:56.050Z,28.01
2022-07-27T13:00:34.038Z,27.79
2022-07-27T13:03:07.679Z,27.53
2022-07-27T13:05:39.986Z,27.70
2022-07-27T13:08:12.837Z,28.02
2022-07-27T13:10:50.367Z,28.07
2022-07-27T13:13:25.070Z,27.98
2022-07-27T13:15:57.647Z,28.16
2022-07-27T13:18:30.304Z,28.19
2022-07-27T13:21:02.378Z,28.26
2022-07-27T13:23:35.651Z,28.42
2022-07-27T13:26:09.027Z,28.53
2022-07-27T13:28:41.527Z,28.90
2022-07-27T13:31:13.838Z,29.31
2022-07-27T13:33:46.755Z,29.67
2022-07-27T13:36:19.108Z,30.13
2022-07-27T13:38:51.587Z,30.60
2022-07-27T13:41:24.570Z,31.01
2022-07-27T13:43:56.765Z,31.03
2022-07-27T13:46:29.637Z,31.19
2022-07-27T13:49:03.399Z,31.31
2022-07-27T13:51:35.636Z,31.55
2022-07-27T13:54:08.753Z,31.98
2022-07-27T13:56:41.524Z,32.34
2022-07-27T13:59:16.249Z,32.59
2022-07-27T14:01:53.010Z,33.00
2022-07-27T14:04:28.823Z,33.28
2022-07-27T14:07:03.220Z,33.07
2022-07-27T14:09:53.034Z,32.57
2022-07-27T14:12:25.608Z,32.63
2022-07-27T14:14:58.208Z,32.63
2022-07-27T14:17:30.389Z,32.51
2022-07-27T14:20:02.683Z,32.48
2022-07-27T14:22:35.033Z,32.60
2022-07-27T14:25:10.748Z,32.72
2022-07-27T14:27:43.383Z,32.80
2022-07-27T14:30:20.710Z,32.89
2022-07-27T14:32:53.686Z,33.04
2022-07-27T14:35:26.075Z,32.96
2022-07-27T14:38:00.196Z,33.19
2022-07-27T14:40:33.917Z,33.47
2022-07-27T14:43:06.629Z,33.73
2022-07-27T14:45:45.074Z,34.05
2022-07-27T14:48:32.087Z,33.71
2022-07-27T14:51:12.281Z,34.02
2022-07-27T14:53:44.638Z,34.10
2022-07-27T14:56:17.584Z,33.78
2022-07-27T14:58:50.438Z,33.86
2022-07-27T15:01:22.527Z,33.32
2022-07-27T15:03:55.691Z,32.35
2022-07-27T15:06:27.662Z,32.31
2022-07-27T15:08:59.951Z,32.12
2022-07-27T15:11:33.115Z,32.38
2022-07-27T15:14:05.591Z,32.68
2022-07-27T15:16:38.313Z,32.82
2022-07-27T15:19:11.352Z,32.81
2022-07-27T15:21:43.931Z,33.20
2022-07-27T15:24:16.410Z,33.43
2022-07-27T15:26:49.096Z,33.20
2022-07-27T15:29:21.167Z,33.26
2022-07-27T15:31:53.803Z,33.24
2022-07-27T15:34:26.101Z,32.90
2022-07-27T15:36:58.370Z,32.47
2022-07-27T15:39:30.415Z,32.29
2022-07-27T15:42:03.461Z,32.16
2022-07-27T15:44:35.976Z,32.69
2022-07-27T15:47:09.035Z,33.01
2022-07-27T15:49:41.156Z,33.08
2022-07-27T15:52:13.560Z,32.72
2022-07-27T15:54:48.036Z,32.67
2022-07-27T15:57:20.840Z,32.34
2022-07-27T15:59:54.047Z,31.46
2022-07-27T16:02:29.199Z,30.48
2022-07-27T16:05:04.967Z,29.92
2022-07-27T16:07:41.707Z,29.38
2022-07-27T16:10:14.404Z,29.00
2022-07-27T16:12:46.643Z,28.57
2022-07-27T16:15:19.456Z,28.07
2022-07-27T16:17:51.529Z,27.65
2022-07-27T16:20:23.694Z,27.30
2022-07-27T16:22:56.149Z,26.90
2022-07-27T16:25:53.377Z,26.68
2022-07-27T16:28:21.541Z,26.52
2022-07-27T16:30:54.343Z,26.81
2022-07-27T16:33:26.785Z,27.15
2022-07-27T16:35:59.848Z,27.42
2022-07-27T16:38:35.318Z,27.70
2022-07-27T16:41:11.904Z,28.01
2022-07-27T16:43:44.199Z,28.12
2022-07-27T16:46:16.935Z,27.73
2022-07-27T16:48:50.366Z,27.45
2022-07-27T16:51:23.074Z,27.13
2022-07-27T16:53:55.304Z,26.85
2022-07-27T16:56:27.958Z,26.57
2022-07-27T16:59:00.356Z,26.21
2022-07-27T17:01:34.753Z,25.74
2022-07-27T17:04:07.859Z,25.34
2022-07-27T17:06:39.976Z,25.02
2022-07-27T17:09:12.668Z,24.85
2022-07-27T17:11:47.361Z,24.70
2022-07-27T17:14:21.232Z,24.49
2022-07-27T17:16:56.614Z,24.17
2022-07-27T17:19:29.476Z,23.94
2022-07-27T17:22:01.439Z,23.85
2022-07-27T17:24:37.900Z,23.71
2022-07-27T17:27:10.485Z,23.61
2022-07-27T17:29:44.896Z,23.53
2022-07-27T17:32:16.993Z,23.49
2022-07-27T17:34:49.497Z,23.44
2022-07-27T17:37:21.435Z,23.33
2022-07-27T17:39:53.735Z,23.21
2022-07-27T17:42:27.831Z,23.15
2022-07-27T17:45:00.126Z,23.07
2022-07-27T17:47:32.176Z,22.97
2022-07-27T17:50:04.922Z,22.83
2022-07-27T17:52:38.482Z,22.64
2022-07-27T17:55:12.780Z,22.44
2022-07-27T17:57:45.304Z,22.29
2022-07-27T18:00:19.397Z,22.15
2022-07-27T18:02:52.025Z,21.97
2022-07-27T18:05:24.628Z,21.86
2022-07-27T18:07:56.847Z,21.75
2022-07-27T18:10:28.951Z,21.59
2022-07-27T18:13:01.207Z,21.49
2022-07-27T18:15:50.593Z,21.43
2022-07-27T18:18:24.206Z,21.34
2022-07-27T18:20:57.909Z,21.26
2022-07-27T18:23:30.923Z,21.20
2022-07-27T18:26:04.046Z,21.13
2022-07-27T18:28:39.760Z,21.07
2022-07-27T18:31:15.859Z,21.04
2022-07-27T18:33:50.408Z,21.03
2022-07-27T18:36:22.708Z,21.03
2022-07-27T18:38:54.633Z,21.00
2022-07-27T18:41:27.945Z,20.96
2022-07-27T18:44:00.087Z,20.93
2022-07-27T18:46:32.398Z,20.90
2022-07-27T18:49:05.061Z,20.87
2022-07-27T18:51:40.115Z,20.81
2022-07-27T18:54:13.486Z,20.75
2022-07-27T18:56:46.300Z,20.70
2022-07-27T18:59:18.506Z,20.66
2022-07-27T19:01:51.856Z,20.64
2022-07-27T19:04:24.667Z,20.62
2022-07-27T19:06:58.208Z,20.60
2022-07-27T19:09:30.292Z,20.58
2022-07-27T19:12:09.108Z,20.57
2022-07-27T19:14:42.317Z,20.55
2022-07-27T19:17:14.810Z,20.53
2022-07-27T19:19:47.504Z,20.50
2022-07-27T19:22:21.092Z,20.47
2022-07-27T19:24:55.103Z,20.45
2022-07-27T19:27:28.205Z,20.43
2022-07-27T19:30:02.443Z,20.41
2022-07-27T19:32:34.730Z,20.39
2022-07-27T19:35:08.061Z,20.38
2022-07-27T19:37:40.469Z,20.34
2022-07-27T19:40:42.908Z,20.32
2022-07-27T19:43:07.891Z,20.29
2022-07-27T19:45:40.111Z,20.26
2022-07-27T19:48:13.741Z,20.23
2022-07-27T19:50:46.899Z,20.20
2022-07-27T19:53:19.010Z,20.16
2022-07-27T19:55:54.690Z,20.11
2022-07-27T19:58:26.934Z,20.06
2022-07-27T20:01:03.062Z,20.01
2022-07-27T20:03:53.878Z,19.97
2022-07-27T20:06:27.087Z,19.93
2022-07-27T20:08:59.897Z,19.88
2022-07-27T20:11:33.811Z,19.84
2022-07-27T20:14:06.551Z,19.81
2022-07-27T20:16:42.095Z,19.77
2022-07-27T20:19:15.286Z,19.73
2022-07-27T20:21:48.058Z,19.68
2022-07-27T20:24:20.466Z,19.65
2022-07-27T20:26:52.838Z,19.61
2022-07-27T20:29:29.375Z,19.55
2022-07-27T20:32:05.475Z,19.48
2022-07-27T20:34:38.657Z,19.41
2022-07-27T20:37:12.356Z,19.35
2022-07-27T20:39:44.602Z,19.28
2022-07-27T20:42:17.907Z,19.23
2022-07-27T20:44:49.990Z,19.20
2022-07-27T20:47:23.157Z,19.14
2022-07-27T20:49:58.703Z,19.09
2022-07-27T20:52:31.028Z,19.06
2022-07-27T20:55:04.389Z,19.02
2022-07-27T20:57:36.580Z,18.98
2022-07-27T21:00:11.604Z,18.95
2022-07-27T21:02:44.265Z,18.91
2022-07-27T21:05:17.136Z,18.89
2022-07-27T21:07:49.669Z,18.87
2022-07-27T21:10:21.985Z,18.84
2022-07-27T21:12:54.617Z,18.82
2022-07-27T21:15:33.948Z,18.83
2022-07-27T21:18:08.306Z,18.83
2022-07-27T21:20:42.170Z,18.81
2022-07-27T21:23:33.038Z,18.80
2022-07-27T21:26:07.172Z,18.77
2022-07-27T21:28:41.298Z,18.75
2022-07-27T21:31:14.499Z,18.70
2022-07-27T21:33:46.757Z,18.64
2022-07-27T21:36:19.898Z,18.61
2022-07-27T21:38:53.366Z,18.57
2022-07-27T21:41:25.530Z,18.57
2022-07-27T21:44:00.847Z,18.53
2022-07-27T21:46:33.181Z,18.47
2022-07-27T21:49:05.899Z,18.43
2022-07-27T21:51:38.986Z,18.41
2022-07-27T21:54:13.483Z,18.41
2022-07-27T21:56:50.467Z,18.40
2022-07-27T21:59:22.972Z,18.39
2022-07-27T22:01:55.128Z,18.36
2022-07-27T22:04:31.634Z,18.35
2022-07-27T22:07:05.059Z,18.35
2022-07-27T22:09:39.937Z,18.33
2022-07-27T22:12:17.976Z,18.32
2022-07-27T22:14:50.120Z,18.29
2022-07-27T22:17:22.097Z,18.29
2022-07-27T22:19:55.042Z,18.28
2022-07-27T22:22:28.559Z,18.26
2022-07-27T22:25:00.518Z,18.27
2022-07-27T22:27:33.840Z,18.26
2022-07-27T22:30:06.566Z,18.24
2022-07-27T22:32:39.352Z,18.21
2022-07-27T22:35:13.409Z,18.20
2022-07-27T22:37:45.579Z,18.20
2022-07-27T22:40:19.006Z,18.18
2022-07-27T22:42:51.630Z,18.16
2022-07-27T22:45:24.063Z,18.13
2022-07-27T22:47:56.072Z,18.10
2022-07-27T22:50:29.162Z,18.07
2022-07-27T22:53:01.427Z,18.04
2022-07-27T22:55:36.377Z,18.03
2022-07-27T22:58:09.419Z,18.01
2022-07-27T23:00:41.784Z,18.00
2022-07-27T23:03:15.844Z,17.99
2022-07-27T23:05:48.107Z,17.96
2022-07-27T23:08:21.983Z,17.96
2022-07-27T23:10:54.405Z,17.95
2022-07-27T23:13:26.657Z,17.95
2022-07-27T23:16:06.805Z,17.93
2022-07-27T23:18:38.957Z,17.90
2022-07-27T23:21:11.560Z,17.88
2022-07-27T23:23:49.858Z,17.88
2022-07-27T23:26:26.451Z,17.85
2022-07-27T23:28:59.122Z,17.83
2022-07-27T23:31:31.400Z,17.81
2022-07-27T23:34:03.536Z,17.79
2022-07-27T23:36:36.294Z,17.76
2022-07-27T23:39:08.691Z,17.71
2022-07-27T23:41:40.818Z,17.68
2022-07-27T23:44:14.248Z,17.66
2022-07-27T23:46:46.814Z,17.62
2022-07-27T23:49:19.061Z,17.61
2022-07-27T23:51:51.423Z,17.59
2022-07-27T23:54:23.568Z,17.58
2022-07-27T23:56:55.840Z,17.56
2022-07-27T23:59:27.934Z,17.55
